Time;durP1;ratioP1;P1;durP2;ratioP2;P2;SDS_P1;SDS_P2;PMS_P1;PMS_P2;Temp;Humidity;BMP_temperature;BMP_pressure;BME280_temperature;BME280_humidity;BME280_pressure;Samples;Min_cycle;Max_cycle;Signal;HPM_P1;HPM_P2
2021/09/22 00:00:31;;;;;;;18.00;5.03;;;11.50;99.90;;;;;;5108958;28;20450;-77
2021/09/22 00:02:58;;;;;;;18.07;5.33;;;11.50;99.90;;;;;;5110579;28;20989;-78
2021/09/22 00:05:25;;;;;;;18.43;5.10;;;11.50;99.90;;;;;;5101054;28;20528;-78
2021/09/22 00:07:52;;;;;;;17.63;4.67;;;11.40;99.90;;;;;;5099963;28;20484;-77
2021/09/22 00:10:21;;;;;;;20.40;5.40;;;11.40;99.90;;;;;;5118021;28;20458;-77
2021/09/22 00:12:49;;;;;;;20.07;5.03;;;11.50;99.90;;;;;;5106239;28;20455;-78
2021/09/22 00:15:17;;;;;;;19.17;5.20;;;11.40;99.90;;;;;;5110662;28;20502;-76
2021/09/22 00:17:46;;;;;;;19.23;5.17;;;11.40;99.90;;;;;;5115080;28;20456;-78
2021/09/22 00:20:14;;;;;;;20.10;4.90;;;11.40;99.90;;;;;;5102061;28;20452;-77
2021/09/22 00:22:40;;;;;;;18.43;5.40;;;11.40;99.90;;;;;;5104792;28;20540;-77
2021/09/22 00:25:08;;;;;;;16.77;5.00;;;11.40;99.90;;;;;;5108118;28;20452;-78
2021/09/22 00:27:35;;;;;;;19.77;5.50;;;11.30;99.90;;;;;;5096807;28;20487;-76
2021/09/22 00:30:02;;;;;;;18.33;4.20;;;11.40;99.90;;;;;;5127340;27;20441;-78
2021/09/22 00:32:29;;;;;;;18.50;5.07;;;11.30;99.90;;;;;;5105991;28;20528;-77
2021/09/22 00:34:57;;;;;;;19.10;4.73;;;11.20;99.90;;;;;;5106903;28;20540;-77
2021/09/22 00:37:24;;;;;;;18.73;5.50;;;11.20;99.90;;;;;;5094923;28;20468;-77
2021/09/22 00:39:51;;;;;;;16.20;5.60;;;11.20;99.90;;;;;;5097063;28;20472;-79
2021/09/22 00:42:18;;;;;;;22.00;5.30;;;11.20;99.90;;;;;;5098414;28;20294;-78
2021/09/22 00:44:51;;;;;;;18.80;4.90;;;11.30;99.90;;;;;;5098994;28;20886;-79
2021/09/22 00:47:19;;;;;;;18.53;4.90;;;11.30;99.90;;;;;;5097407;28;20581;-79
2021/09/22 00:49:45;;;;;;;17.33;5.07;;;11.30;99.90;;;;;;5098585;28;20482;-78
2021/09/22 00:52:15;;;;;;;19.57;5.50;;;11.30;99.90;;;;;;5098038;28;20450;-78
2021/09/22 00:54:42;;;;;;;19.00;4.80;;;11.20;99.90;;;;;;5097652;28;21029;-78
2021/09/22 00:57:09;;;;;;;15.97;4.30;;;11.20;99.90;;;;;;5097492;28;20465;-78
2021/09/22 00:59:36;;;;;;;21.83;5.57;;;11.10;99.90;;;;;;5097630;28;20437;-78
2021/09/22 01:02:04;;;;;;;20.10;5.27;;;11.10;99.90;;;;;;5097254;28;20450;-78
2021/09/22 01:04:31;;;;;;;18.67;5.20;;;11.10;99.90;;;;;;5096862;28;20889;-78
2021/09/22 01:06:58;;;;;;;21.43;5.13;;;11.00;99.90;;;;;;5096798;28;20511;-79
2021/09/22 01:09:28;;;;;;;18.37;4.57;;;11.00;99.90;;;;;;5097314;28;20446;-78
2021/09/22 01:11:55;;;;;;;18.63;5.00;;;11.10;99.90;;;;;;5100247;28;20468;-78
2021/09/22 01:14:23;;;;;;;17.13;4.83;;;11.00;99.90;;;;;;5110012;28;20442;-78
2021/09/22 01:16:50;;;;;;;17.70;5.10;;;11.00;99.90;;;;;;5107170;28;20489;-78
2021/09/22 01:19:18;;;;;;;19.27;4.70;;;11.00;99.90;;;;;;5101907;28;20543;-78
2021/09/22 01:21:48;;;;;;;21.13;5.37;;;11.00;99.90;;;;;;5113227;28;20448;-78
2021/09/22 01:24:15;;;;;;;17.30;4.60;;;11.00;99.90;;;;;;5103242;28;20440;-78
2021/09/22 01:26:43;;;;;;;19.80;5.37;;;11.00;99.90;;;;;;5105175;28;20792;-77
2021/09/22 01:29:10;;;;;;;19.23;5.10;;;10.90;99.90;;;;;;5120446;27;20447;-78
2021/09/22 01:31:37;;;;;;;19.73;5.40;;;10.90;99.90;;;;;;5116877;27;20464;-77
2021/09/22 01:34:06;;;;;;;19.77;5.63;;;10.80;99.90;;;;;;5110304;28;20456;-78
2021/09/22 01:36:33;;;;;;;20.93;5.57;;;10.80;99.90;;;;;;5104159;28;20448;-78
2021/09/22 01:39:02;;;;;;;17.00;4.80;;;10.90;99.90;;;;;;5102731;28;20445;-78
2021/09/22 01:41:29;;;;;;;18.43;4.70;;;10.80;99.90;;;;;;5112269;28;20445;-77
2021/09/22 01:43:56;;;;;;;22.07;6.57;;;10.90;99.90;;;;;;5099424;28;20441;-78
2021/09/22 01:46:24;;;;;;;19.07;5.00;;;10.80;99.90;;;;;;5106194;28;20471;-77
2021/09/22 01:48:50;;;;;;;24.07;6.20;;;10.80;99.90;;;;;;5096286;28;20479;-79
2021/09/22 01:51:17;;;;;;;20.03;4.57;;;10.80;99.90;;;;;;5114133;28;20447;-78
2021/09/22 01:53:44;;;;;;;17.80;5.00;;;10.80;99.90;;;;;;5101813;28;20456;-79
2021/09/22 01:56:12;;;;;;;18.03;4.63;;;10.70;99.90;;;;;;5117407;28;20447;-77
2021/09/22 01:58:39;;;;;;;18.80;4.80;;;10.70;99.90;;;;;;5098003;28;20465;-79
2021/09/22 02:01:09;;;;;;;17.80;5.30;;;10.70;99.90;;;;;;5097575;28;20458;-78
2021/09/22 02:03:37;;;;;;;18.10;5.57;;;10.70;99.90;;;;;;5101162;28;20452;-77
2021/09/22 02:06:04;;;;;;;18.50;4.87;;;10.70;99.90;;;;;;5117761;28;20905;-78
2021/09/22 02:08:31;;;;;;;19.90;4.70;;;10.60;99.90;;;;;;5117835;28;20485;-78
2021/09/22 02:10:58;;;;;;;20.13;4.90;;;10.70;99.90;;;;;;5103283;28;20449;-78
2021/09/22 02:13:26;;;;;;;19.33;5.00;;;10.70;99.90;;;;;;5101396;28;20458;-77
2021/09/22 02:15:53;;;;;;;17.07;4.33;;;10.70;99.90;;;;;;5117638;28;20568;-77
2021/09/22 02:18:19;;;;;;;19.40;4.77;;;10.60;99.90;;;;;;5115383;28;20475;-78
2021/09/22 02:20:46;;;;;;;19.40;5.60;;;10.60;99.90;;;;;;5126155;27;20483;-78
2021/09/22 02:23:13;;;;;;;17.87;4.60;;;10.60;99.90;;;;;;5120398;27;20470;-78
2021/09/22 02:25:40;;;;;;;20.60;5.13;;;10.70;99.90;;;;;;5116780;27;20451;-80
2021/09/22 02:28:07;;;;;;;18.80;5.60;;;10.60;99.90;;;;;;5100839;28;20491;-79
2021/09/22 02:30:35;;;;;;;17.03;3.90;;;10.70;99.90;;;;;;5099956;28;20453;-79
2021/09/22 02:33:02;;;;;;;18.60;5.00;;;10.70;99.90;;;;;;5122284;27;20456;-78
2021/09/22 02:35:29;;;;;;;20.50;5.33;;;10.60;99.90;;;;;;5133630;27;20881;-80
2021/09/22 02:37:55;;;;;;;19.00;5.53;;;10.60;99.90;;;;;;5136748;27;20474;-78
2021/09/22 02:40:22;;;;;;;21.80;5.33;;;10.60;99.90;;;;;;5138007;27;20451;-78
2021/09/22 02:42:49;;;;;;;19.10;5.07;;;10.60;99.90;;;;;;5126224;27;20452;-79
2021/09/22 02:45:16;;;;;;;18.63;4.83;;;10.50;99.90;;;;;;5137725;27;20460;-79
2021/09/22 02:47:44;;;;;;;21.63;5.07;;;10.50;99.90;;;;;;5138302;22;20506;-82
2021/09/22 02:50:13;;;;;;;21.63;5.60;;;10.50;99.90;;;;;;5072032;28;20837;-82
2021/09/22 02:52:40;;;;;;;18.63;4.60;;;10.40;99.90;;;;;;5071689;28;20547;-82
2021/09/22 02:55:08;;;;;;;23.03;5.43;;;10.40;99.90;;;;;;5089746;28;20462;-82
2021/09/22 02:57:35;;;;;;;19.33;4.97;;;10.40;99.90;;;;;;5079301;28;20479;-82
2021/09/22 03:00:02;;;;;;;21.47;5.20;;;10.40;99.90;;;;;;5073921;28;20454;-81
2021/09/22 03:02:29;;;;;;;18.80;5.37;;;10.50;99.90;;;;;;5073486;28;20522;-82
2021/09/22 03:04:57;;;;;;;21.50;5.87;;;10.40;99.90;;;;;;5074189;28;20469;-83
2021/09/22 03:07:24;;;;;;;19.30;5.70;;;10.40;99.90;;;;;;5072889;28;20492;-82
2021/09/22 03:09:51;;;;;;;18.80;5.17;;;10.40;99.90;;;;;;5072749;28;20463;-82
2021/09/22 03:12:18;;;;;;;21.03;6.10;;;10.40;99.90;;;;;;5072506;28;20959;-83
2021/09/22 03:14:45;;;;;;;20.43;5.80;;;10.40;99.90;;;;;;5072858;28;20993;-82
2021/09/22 03:17:13;;;;;;;20.07;5.90;;;10.40;99.90;;;;;;5072134;28;20450;-83
2021/09/22 03:19:40;;;;;;;18.50;5.17;;;10.40;99.90;;;;;;5072748;28;20850;-82
2021/09/22 03:22:08;;;;;;;20.20;5.00;;;10.30;99.90;;;;;;5072350;28;20453;-83
2021/09/22 03:24:35;;;;;;;18.10;5.17;;;10.30;99.90;;;;;;5073190;28;20445;-83
2021/09/22 03:27:02;;;;;;;19.20;5.17;;;10.30;99.90;;;;;;5072252;28;20452;-82
2021/09/22 03:29:29;;;;;;;18.30;5.50;;;10.30;99.90;;;;;;5073067;28;20485;-83
2021/09/22 03:31:56;;;;;;;20.27;5.87;;;10.30;99.90;;;;;;5071937;28;20455;-82
2021/09/22 03:34:23;;;;;;;19.07;5.90;;;10.30;99.90;;;;;;5072748;28;20463;-83
2021/09/22 03:36:50;;;;;;;20.60;5.70;;;10.30;99.90;;;;;;5071478;28;20553;-83
2021/09/22 03:39:18;;;;;;;20.83;5.97;;;10.30;99.90;;;;;;5072829;28;20462;-82
2021/09/22 03:41:45;;;;;;;19.67;5.67;;;10.30;99.90;;;;;;5072209;28;20453;-83
2021/09/22 03:44:11;;;;;;;20.10;5.67;;;10.40;99.90;;;;;;5073113;28;20452;-82
2021/09/22 03:46:38;;;;;;;19.67;5.83;;;10.30;99.90;;;;;;5072175;28;20456;-81
2021/09/22 03:49:05;;;;;;;19.57;5.60;;;10.30;99.90;;;;;;5072788;28;21028;-83
2021/09/22 03:51:32;;;;;;;21.57;5.67;;;10.30;99.90;;;;;;5072424;28;20533;-82
2021/09/22 03:53:59;;;;;;;20.10;6.30;;;10.30;99.90;;;;;;5075727;28;20458;-83
2021/09/22 03:56:27;;;;;;;22.10;5.90;;;10.30;99.90;;;;;;5077671;28;20454;-84
2021/09/22 03:58:54;;;;;;;19.33;5.73;;;10.20;99.90;;;;;;5076577;28;20466;-83
2021/09/22 04:01:21;;;;;;;18.73;6.10;;;10.20;99.90;;;;;;5078003;28;20460;-83
2021/09/22 04:03:48;;;;;;;21.33;6.03;;;10.30;99.90;;;;;;5077590;28;20519;-84
2021/09/22 04:06:15;;;;;;;21.33;5.90;;;10.30;99.90;;;;;;5076615;28;20450;-83
2021/09/22 04:08:41;;;;;;;20.60;5.67;;;10.30;99.90;;;;;;5077524;28;20498;-83
2021/09/22 04:11:08;;;;;;;19.57;5.80;;;10.20;99.90;;;;;;5077239;28;20456;-82
2021/09/22 04:13:37;;;;;;;21.37;5.87;;;10.30;99.90;;;;;;5076857;28;20464;-82
2021/09/22 04:16:04;;;;;;;21.30;5.37;;;10.30;99.90;;;;;;5077558;28;20454;-83
2021/09/22 04:18:31;;;;;;;20.77;5.53;;;10.30;99.90;;;;;;5077094;28;20469;-83
2021/09/22 04:20:58;;;;;;;21.63;5.83;;;10.20;99.90;;;;;;5076975;28;20454;-83
2021/09/22 04:23:25;;;;;;;18.60;5.40;;;10.20;99.90;;;;;;5078006;28;20454;-83
2021/09/22 04:25:52;;;;;;;22.53;6.63;;;10.30;99.90;;;;;;5077896;28;20450;-84
2021/09/22 04:28:18;;;;;;;19.00;5.27;;;10.20;99.90;;;;;;5077606;28;20485;-83
2021/09/22 04:30:47;;;;;;;20.23;6.47;;;10.30;99.90;;;;;;5092353;28;20523;-83
2021/09/22 04:33:14;;;;;;;21.37;6.17;;;10.20;99.90;;;;;;5092916;28;20457;-83
2021/09/22 04:35:41;;;;;;;24.13;6.60;;;10.20;99.90;;;;;;5110610;28;20508;-82
2021/09/22 04:38:08;;;;;;;21.70;6.67;;;10.20;99.90;;;;;;5091024;28;20473;-83
2021/09/22 04:40:35;;;;;;;20.60;6.67;;;10.20;99.90;;;;;;5091422;28;20452;-82
2021/09/22 04:43:03;;;;;;;20.90;6.40;;;10.20;99.90;;;;;;5090169;28;20465;-82
2021/09/22 04:45:29;;;;;;;21.40;7.23;;;10.20;99.90;;;;;;5090448;28;20461;-83
2021/09/22 04:47:58;;;;;;;22.10;6.43;;;10.20;99.90;;;;;;5094554;28;20576;-83
2021/09/22 04:50:26;;;;;;;21.60;8.33;;;10.30;99.90;;;;;;5096077;28;20523;-82
2021/09/22 04:52:53;;;;;;;20.70;6.40;;;10.20;99.90;;;;;;5084717;28;20454;-83
2021/09/22 04:55:19;;;;;;;22.23;7.23;;;10.20;99.90;;;;;;5076019;28;20457;-82
2021/09/22 04:57:46;;;;;;;23.03;7.20;;;10.20;99.90;;;;;;5074458;28;20474;-82
2021/09/22 05:00:14;;;;;;;23.97;7.93;;;10.20;99.90;;;;;;5075408;28;20880;-82
2021/09/22 05:02:41;;;;;;;22.83;8.83;;;10.20;99.90;;;;;;5074561;28;20458;-83
2021/09/22 05:05:10;;;;;;;22.23;7.47;;;10.20;99.90;;;;;;5075906;28;20443;-83
2021/09/22 05:07:37;;;;;;;21.57;6.80;;;10.10;99.90;;;;;;5074773;28;21082;-82
2021/09/22 05:10:05;;;;;;;24.77;8.10;;;10.20;99.90;;;;;;5074943;28;20462;-83
2021/09/22 05:12:31;;;;;;;25.60;7.27;;;10.20;99.90;;;;;;5074946;28;20855;-81
2021/09/22 05:14:58;;;;;;;19.83;5.90;;;10.20;99.90;;;;;;5075537;28;20467;-83
2021/09/22 05:17:25;;;;;;;23.10;7.27;;;10.20;99.90;;;;;;5074771;28;20852;-83
2021/09/22 05:19:52;;;;;;;26.07;8.83;;;10.20;99.90;;;;;;5074573;28;20453;-83
2021/09/22 05:22:20;;;;;;;21.97;7.07;;;10.20;99.90;;;;;;5074912;28;20461;-83
2021/09/22 05:24:47;;;;;;;23.37;7.23;;;10.20;99.90;;;;;;5079239;28;20559;-83
2021/09/22 05:27:14;;;;;;;26.20;8.90;;;10.20;99.90;;;;;;5075079;28;20459;-82
2021/09/22 05:29:41;;;;;;;22.30;7.80;;;10.30;99.90;;;;;;5075887;28;20483;-82
2021/09/22 05:32:09;;;;;;;24.77;8.33;;;10.30;99.90;;;;;;5075145;28;20848;-82
2021/09/22 05:34:36;;;;;;;23.43;7.77;;;10.30;99.90;;;;;;5074873;28;20538;-82
2021/09/22 05:37:02;;;;;;;23.67;7.70;;;10.30;99.90;;;;;;5073434;28;20981;-82
2021/09/22 05:39:31;;;;;;;23.30;7.80;;;10.30;99.90;;;;;;5074093;28;20452;-83
2021/09/22 05:41:57;;;;;;;24.13;8.73;;;10.30;99.90;;;;;;5071838;28;20458;-83
2021/09/22 05:44:24;;;;;;;24.23;8.00;;;10.30;99.90;;;;;;5073993;28;20461;-83
2021/09/22 05:46:51;;;;;;;23.40;8.03;;;10.40;99.90;;;;;;5073189;28;20460;-82
2021/09/22 05:49:18;;;;;;;22.30;8.77;;;10.40;99.90;;;;;;5073077;28;20498;-82
2021/09/22 05:51:45;;;;;;;25.33;8.50;;;10.30;99.90;;;;;;5073606;28;20458;-82
2021/09/22 05:54:13;;;;;;;22.20;8.27;;;10.40;99.90;;;;;;5072497;28;20962;-82
2021/09/22 05:56:42;;;;;;;24.83;8.63;;;10.30;99.90;;;;;;5077216;28;20448;-83
2021/09/22 05:59:09;;;;;;;25.80;9.20;;;10.50;99.90;;;;;;5077576;28;20531;-83
2021/09/22 06:01:36;;;;;;;28.43;9.90;;;10.50;99.90;;;;;;5084973;28;20441;-83
2021/09/22 06:04:03;;;;;;;32.97;10.10;;;10.50;99.90;;;;;;5084972;28;20893;-83
2021/09/22 06:06:30;;;;;;;24.83;9.40;;;10.60;99.90;;;;;;5092822;28;20497;-83
2021/09/22 06:08:56;;;;;;;25.47;9.60;;;10.70;99.90;;;;;;5111022;28;20588;-83
2021/09/22 06:11:23;;;;;;;24.43;10.30;;;10.80;99.90;;;;;;5105242;28;20953;-83
2021/09/22 06:13:53;;;;;;;28.20;9.87;;;10.80;99.90;;;;;;5086001;28;20462;-84
2021/09/22 06:16:20;;;;;;;31.13;10.60;;;10.90;99.90;;;;;;5083851;28;20464;-83
2021/09/22 06:18:47;;;;;;;26.67;10.43;;;11.10;99.90;;;;;;5085846;28;20549;-84
2021/09/22 06:21:14;;;;;;;25.07;9.30;;;11.10;99.90;;;;;;5084622;28;20461;-83
2021/09/22 06:23:41;;;;;;;25.87;9.40;;;11.20;99.90;;;;;;5084566;28;20447;-83
2021/09/22 06:26:08;;;;;;;23.10;9.00;;;11.30;99.90;;;;;;5083646;28;20450;-83
2021/09/22 06:28:35;;;;;;;25.27;9.33;;;11.40;99.90;;;;;;5084963;28;20491;-84
2021/09/22 06:31:04;;;;;;;26.50;10.17;;;11.40;99.90;;;;;;5086241;28;20450;-83
2021/09/22 06:33:31;;;;;;;26.33;8.97;;;11.50;99.90;;;;;;5090845;28;20430;-83
2021/09/22 06:36:00;;;;;;;22.80;9.27;;;11.50;99.90;;;;;;5086892;28;20454;-83
2021/09/22 06:38:27;;;;;;;29.33;10.20;;;11.60;99.90;;;;;;5074848;28;20470;-83
2021/09/22 06:40:54;;;;;;;24.50;10.90;;;11.70;99.90;;;;;;5074677;28;20462;-83
2021/09/22 06:43:21;;;;;;;28.00;10.20;;;11.80;99.90;;;;;;5075216;28;20546;-83
2021/09/22 06:45:48;;;;;;;26.00;10.57;;;11.90;99.90;;;;;;5074015;28;20895;-82
2021/09/22 06:48:17;;;;;;;25.37;11.10;;;11.90;99.90;;;;;;5073693;28;20477;-83
2021/09/22 06:50:44;;;;;;;29.47;9.87;;;12.00;99.90;;;;;;5073947;28;20828;-82
2021/09/22 06:53:11;;;;;;;22.00;9.47;;;12.00;99.90;;;;;;5074823;28;20830;-83
2021/09/22 06:55:37;;;;;;;34.87;11.87;;;12.20;99.90;;;;;;5075027;28;20465;-82
2021/09/22 06:58:05;;;;;;;29.20;11.50;;;12.20;99.90;;;;;;5074337;28;20475;-83
2021/09/22 07:00:33;;;;;;;35.23;11.47;;;12.30;99.90;;;;;;5074928;28;21033;-83
2021/09/22 07:03:01;;;;;;;27.43;11.53;;;12.30;99.90;;;;;;5074581;28;20456;-83
2021/09/22 07:05:29;;;;;;;26.40;10.50;;;12.40;99.90;;;;;;5074141;28;20879;-83
2021/09/22 07:07:56;;;;;;;25.63;10.30;;;12.50;99.90;;;;;;5074407;28;20463;-83
2021/09/22 07:10:22;;;;;;;26.13;11.10;;;12.60;99.90;;;;;;5074499;28;20487;-83
2021/09/22 07:12:52;;;;;;;25.90;11.33;;;12.70;99.90;;;;;;5071928;28;20458;-83
2021/09/22 07:15:19;;;;;;;26.60;11.13;;;12.80;99.90;;;;;;5074182;28;20439;-83
2021/09/22 07:17:46;;;;;;;27.10;10.47;;;12.90;99.90;;;;;;5073592;28;20470;-83
2021/09/22 07:20:13;;;;;;;28.20;10.80;;;12.90;99.90;;;;;;5074056;28;20452;-83
2021/09/22 07:22:42;;;;;;;28.70;10.93;;;13.10;99.90;;;;;;5073676;28;20463;-83
2021/09/22 07:25:11;;;;;;;26.00;10.70;;;13.20;99.90;;;;;;5070249;28;20467;-83
2021/09/22 07:27:38;;;;;;;27.77;11.50;;;13.30;99.90;;;;;;5072634;28;20466;-83
2021/09/22 07:30:06;;;;;;;29.13;10.93;;;13.40;99.90;;;;;;5075149;28;20472;-84
2021/09/22 07:32:34;;;;;;;28.03;11.03;;;13.50;99.90;;;;;;5081998;28;20465;-84
2021/09/22 07:35:01;;;;;;;29.97;12.67;;;13.60;99.90;;;;;;5082943;28;20540;-87
2021/09/22 07:37:28;;;;;;;28.50;11.73;;;13.60;99.90;;;;;;5079687;28;20467;-83
2021/09/22 07:39:56;;;;;;;29.80;12.83;;;13.70;99.90;;;;;;5077856;28;20535;-84
2021/09/22 07:42:23;;;;;;;35.23;14.27;;;13.80;99.90;;;;;;5083570;28;20465;-84
2021/09/22 07:44:53;;;;;;;31.03;12.63;;;13.90;99.90;;;;;;5087815;28;20462;-85
2021/09/22 07:47:22;;;;;;;33.50;12.17;;;14.00;99.90;;;;;;5082270;28;20549;-85
2021/09/22 07:49:49;;;;;;;27.00;11.87;;;14.10;99.90;;;;;;5084206;28;21020;-84
2021/09/22 07:52:16;;;;;;;27.93;12.40;;;14.20;99.90;;;;;;5080278;28;20891;-84
2021/09/22 07:54:43;;;;;;;29.00;13.63;;;14.30;99.90;;;;;;5080117;28;20450;-85
2021/09/22 07:57:12;;;;;;;30.17;14.30;;;14.40;99.90;;;;;;5082167;28;20442;-84
2021/09/22 07:59:39;;;;;;;34.50;14.30;;;14.50;99.90;;;;;;5076948;28;20538;-86
2021/09/22 08:02:06;;;;;;;33.67;15.47;;;14.60;99.90;;;;;;5081650;28;20440;-85
2021/09/22 08:04:33;;;;;;;35.80;16.50;;;14.70;99.90;;;;;;5087584;28;20848;-85
2021/09/22 08:07:02;;;;;;;33.93;15.60;;;14.70;99.90;;;;;;5077381;28;20450;-84
2021/09/22 08:09:29;;;;;;;39.53;16.83;;;14.80;99.90;;;;;;5087619;28;20482;-83
2021/09/22 08:11:56;;;;;;;34.40;15.10;;;14.90;99.90;;;;;;5088299;28;20449;-83
2021/09/22 08:14:29;;;;;;;36.33;17.10;;;15.00;99.90;;;;;;5094473;28;20449;-87
2021/09/22 08:16:56;;;;;;;35.13;16.30;;;15.10;99.90;;;;;;5093409;28;20450;-85
2021/09/22 08:19:23;;;;;;;37.10;16.70;;;15.10;99.90;;;;;;5087534;28;20443;-86
2021/09/22 08:21:50;;;;;;;37.60;15.73;;;15.20;99.90;;;;;;5090655;28;20449;-89
2021/09/22 08:24:17;;;;;;;35.37;15.37;;;15.40;99.90;;;;;;5077170;28;20463;-86
2021/09/22 08:26:44;;;;;;;36.60;15.47;;;15.50;99.90;;;;;;5081975;28;20547;-86
2021/09/22 08:29:10;;;;;;;38.43;16.47;;;15.60;99.90;;;;;;5083562;28;20478;-86
2021/09/22 08:31:39;;;;;;;32.50;15.00;;;15.70;99.90;;;;;;5085597;28;20439;-86
2021/09/22 08:34:05;;;;;;;30.37;15.20;;;15.70;99.90;;;;;;5095203;28;20456;-85
2021/09/22 08:36:32;;;;;;;32.40;15.57;;;15.90;99.90;;;;;;5073652;28;20443;-87
2021/09/22 08:38:59;;;;;;;31.30;15.20;;;15.90;99.90;;;;;;5074161;28;20469;-85
2021/09/22 08:41:26;;;;;;;33.33;15.10;;;16.10;99.90;;;;;;5074182;28;20455;-85
2021/09/22 08:43:54;;;;;;;31.07;14.00;;;16.10;99.90;;;;;;5067575;28;20487;-85
2021/09/22 08:46:21;;;;;;;33.07;15.73;;;16.20;99.90;;;;;;5067467;28;20451;-85
2021/09/22 08:48:50;;;;;;;35.23;15.00;;;16.30;99.90;;;;;;5089794;22;20507;-81
2021/09/22 08:51:16;;;;;;;31.37;14.50;;;16.50;99.90;;;;;;5078391;28;20451;-80
2021/09/22 08:53:43;;;;;;;29.10;13.90;;;16.70;99.90;;;;;;5078320;28;20891;-80
2021/09/22 08:56:12;;;;;;;25.47;11.40;;;16.90;99.90;;;;;;5078096;28;20449;-78
2021/09/22 08:58:39;;;;;;;27.27;12.90;;;17.10;99.90;;;;;;5077075;28;20479;-80
2021/09/22 09:01:14;;;;;;;32.60;14.40;;;17.30;99.90;;;;;;5079464;28;20488;-81
2021/09/22 09:03:42;;;;;;;28.40;12.80;;;17.40;99.90;;;;;;5083452;28;20489;-79
2021/09/22 09:06:22;;;;;;;28.47;12.40;;;17.70;99.90;;;;;;5077991;28;20450;-80
2021/09/22 09:08:51;;;;;;;33.47;13.17;;;17.90;99.90;;;;;;5087303;28;20560;-79
2021/09/22 09:11:24;;;;;;;30.90;13.60;;;18.40;99.90;;;;;;5080886;28;20517;-80
2021/09/22 09:13:53;;;;;;;28.67;13.57;;;18.70;99.90;;;;;;5089370;28;20462;-80
2021/09/22 09:16:22;;;;;;;25.70;12.20;;;19.10;99.90;;;;;;5086483;28;20535;-80
2021/09/22 09:18:51;;;;;;;27.00;12.60;;;19.30;99.90;;;;;;5090346;28;20474;-80
2021/09/22 09:21:20;;;;;;;30.10;14.43;;;19.30;99.90;;;;;;5085043;28;20448;-79
2021/09/22 09:23:52;;;;;;;26.73;13.20;;;19.30;99.90;;;;;;5083047;28;20453;-80
2021/09/22 09:26:25;;;;;;;29.23;12.10;;;19.50;99.90;;;;;;5077755;28;20785;-79
2021/09/22 09:28:54;;;;;;;28.83;13.97;;;19.60;99.90;;;;;;5071986;28;20522;-80
2021/09/22 09:31:22;;;;;;;26.10;11.90;;;19.40;99.90;;;;;;5079830;28;20485;-83
2021/09/22 09:33:50;;;;;;;25.00;11.20;;;19.70;99.90;;;;;;5081051;28;20449;-83
2021/09/22 09:36:27;;;;;;;24.87;11.53;;;20.00;99.90;;;;;;5079506;28;20455;-81
2021/09/22 09:39:01;;;;;;;26.33;11.23;;;20.30;99.90;;;;;;5081456;28;20827;-82
2021/09/22 09:41:32;;;;;;;24.13;11.50;;;20.40;99.90;;;;;;5083328;28;20459;-83
2021/09/22 09:44:00;;;;;;;21.20;10.33;;;20.60;99.90;;;;;;5079157;28;20541;-81
2021/09/22 09:46:29;;;;;;;23.60;10.33;;;20.80;99.90;;;;;;5075536;28;20456;-79
2021/09/22 09:48:58;;;;;;;19.97;9.70;;;21.20;99.90;;;;;;5088012;28;21023;-82
2021/09/22 09:51:40;;;;;;;22.93;10.40;;;21.30;99.90;;;;;;5074899;28;20489;-78
2021/09/22 09:54:13;;;;;;;21.57;9.27;;;21.70;99.90;;;;;;5037933;28;20450;-79
2021/09/22 09:56:40;;;;;;;22.57;9.37;;;22.00;99.90;;;;;;5039513;28;20468;-78
2021/09/22 09:59:08;;;;;;;19.73;8.87;;;22.40;99.90;;;;;;5064899;28;20493;-80
2021/09/22 10:01:39;;;;;;;17.47;7.20;;;22.70;99.90;;;;;;5044544;28;21410;-79
2021/09/22 10:04:08;;;;;;;16.93;7.63;;;22.80;99.90;;;;;;5071445;28;21022;-78
2021/09/22 10:06:37;;;;;;;19.87;8.80;;;23.10;99.90;;;;;;5084518;28;20437;-79
2021/09/22 10:09:05;;;;;;;18.90;8.93;;;23.00;99.90;;;;;;5059766;28;20476;-77
2021/09/22 10:11:34;;;;;;;20.67;9.53;;;23.20;99.90;;;;;;5060518;28;20475;-78
2021/09/22 10:14:02;;;;;;;16.70;7.70;;;23.10;99.90;;;;;;5075363;28;20466;-79
2021/09/22 10:16:30;;;;;;;19.40;9.50;;;23.30;99.90;;;;;;5074858;28;20455;-80
2021/09/22 10:18:58;;;;;;;19.70;8.77;;;23.50;99.90;;;;;;5075505;28;20994;-79
2021/09/22 10:21:26;;;;;;;19.40;8.17;;;23.70;99.90;;;;;;5074421;28;20522;-77
2021/09/22 10:23:58;;;;;;;19.17;7.80;;;24.00;99.90;;;;;;5071501;28;20459;-79
2021/09/22 10:26:25;;;;;;;16.57;7.70;;;23.90;99.90;;;;;;5077395;28;20531;-78
2021/09/22 10:28:56;;;;;;;17.93;9.53;;;24.10;99.90;;;;;;5067115;28;20826;-79
2021/09/22 10:31:38;;;;;;;15.87;7.60;;;23.80;99.90;;;;;;5056603;28;20529;-77
2021/09/22 10:34:06;;;;;;;17.17;8.10;;;24.10;99.90;;;;;;5068380;28;20501;-78
2021/09/22 10:36:38;;;;;;;16.30;7.27;;;24.20;99.90;;;;;;5074090;28;20967;-79
2021/09/22 10:39:10;;;;;;;17.83;7.80;;;24.40;99.90;;;;;;5059318;28;20476;-78
2021/09/22 10:41:44;;;;;;;16.20;8.00;;;24.00;99.90;;;;;;5057895;28;20518;-78
2021/09/22 10:44:12;;;;;;;15.77;7.53;;;24.00;99.90;;;;;;5066587;28;20838;-77
2021/09/22 10:46:43;;;;;;;17.17;9.20;;;24.00;99.90;;;;;;5070365;28;20510;-79
2021/09/22 10:49:17;;;;;;;15.23;7.70;;;24.30;99.90;;;;;;5070211;28;20568;-78
2021/09/22 10:51:47;;;;;;;14.50;7.57;;;24.20;99.90;;;;;;5076745;28;20560;-79
2021/09/22 10:54:18;;;;;;;19.50;8.23;;;24.30;99.90;;;;;;5070378;28;20903;-80
2021/09/22 10:56:54;;;;;;;16.03;7.30;;;24.40;99.90;;;;;;5071441;28;20451;-79
2021/09/22 10:59:41;;;;;;;14.30;6.40;;;24.40;99.90;;;;;;5072737;28;20971;-79
2021/09/22 11:02:10;;;;;;;15.07;6.13;;;24.60;99.90;;;;;;5065176;28;20443;-78
2021/09/22 11:04:55;;;;;;;15.30;7.00;;;24.70;99.90;;;;;;5056562;28;20444;-79
2021/09/22 11:07:24;;;;;;;24.00;7.70;;;24.90;99.90;;;;;;5055176;28;20941;-79
2021/09/22 11:09:55;;;;;;;16.00;6.90;;;25.00;99.90;;;;;;5054802;28;21233;-79
2021/09/22 11:12:23;;;;;;;14.57;7.20;;;25.40;99.90;;;;;;5067958;28;20517;-77
2021/09/22 11:14:51;;;;;;;17.83;7.03;;;;;;;;;;5077021;28;20451;-79
2021/09/22 11:17:19;;;;;;;17.50;6.77;;;;;;;;;;5075071;28;20455;-81
2021/09/22 11:19:49;;;;;;;125.93;11.00;;;;;;;;;;5074341;28;20851;-78
2021/09/22 11:22:19;;;;;;;23.27;6.43;;;;;;;;;;5083812;28;20490;-78
2021/09/22 11:24:47;;;;;;;12.80;6.03;;;;;;;;;;5087440;28;20447;-80
2021/09/22 11:27:21;;;;;;;10.93;4.90;;;;;;;;;;5072389;28;20530;-79
2021/09/22 11:29:50;;;;;;;10.50;3.97;;;;;;;;;;5065053;28;20489;-79
2021/09/22 11:32:28;;;;;;;12.10;4.73;;;;;;;;;;5068236;28;20455;-79
2021/09/22 11:34:56;;;;;;;11.10;4.23;;;;;;;;;;5072927;28;20458;-80
2021/09/22 11:37:23;;;;;;;11.33;4.30;;;;;;;;;;5074994;28;20473;-79
2021/09/22 11:39:50;;;;;;;10.90;4.20;;;;;;;;;;5059789;28;21179;-80
2021/09/22 11:42:19;;;;;;;11.73;4.37;;;;;;;;;;5064550;28;20449;-81
2021/09/22 11:44:51;;;;;;;14.40;4.40;;;;;;;;;;5073041;28;20477;-79
2021/09/22 11:47:18;;;;;;;11.00;4.30;;;;;;;;;;5066610;28;20458;-79
2021/09/22 11:49:46;;;;;;;12.17;5.27;;;;;;;;;;5084985;28;20481;-79
2021/09/22 11:52:15;;;;;;;11.60;4.33;;;;;;;;;;5073351;28;20457;-78
2021/09/22 11:54:43;;;;;;;10.17;3.87;;;;;;;;;;5077536;28;20450;-79
2021/09/22 11:57:11;;;;;;;11.00;4.60;;;;;;;;;;5077019;28;20447;-79
2021/09/22 11:59:41;;;;;;;10.87;5.10;;;;;;;;;;5074153;28;20561;-80
2021/09/22 12:02:09;;;;;;;12.33;4.27;;;;;;;;;;5071876;28;20904;-79
2021/09/22 12:04:36;;;;;;;10.83;4.90;;;;;;;;;;5082416;28;20455;-79
2021/09/22 12:07:05;;;;;;;11.67;5.37;;;;;;;;;;5083882;28;20572;-79
2021/09/22 12:09:40;;;;;;;11.67;5.93;;;;;;;;;;5083696;28;20543;-79
2021/09/22 12:12:08;;;;;;;11.33;4.53;;;;;;;;;;5085762;28;20924;-77
2021/09/22 12:14:36;;;;;;;9.60;4.37;;;;;;;;;;5084994;28;20446;-79
2021/09/22 12:17:08;;;;;;;10.40;4.77;;;;;;;;;;5085657;28;20982;-78
2021/09/22 12:19:37;;;;;;;9.60;3.90;;;;;;;;;;5087582;28;20466;-78
2021/09/22 12:22:04;;;;;;;10.70;3.87;;;;;;;;;;5087797;28;20448;-80
2021/09/22 12:24:33;;;;;;;10.43;4.10;;;;;;;;;;5082706;28;20469;-80
2021/09/22 12:27:01;;;;;;;11.03;4.17;;;;;;;;;;5082792;28;20478;-79
2021/09/22 12:29:28;;;;;;;13.50;6.03;;;;;;;;;;5085354;28;20529;-80
2021/09/22 12:31:56;;;;;;;12.13;5.00;;;;;;;;;;5077182;28;20478;-79
2021/09/22 12:34:26;;;;;;;12.27;5.23;;;;;;;;;;5066499;28;20465;-78
2021/09/22 12:36:55;;;;;;;10.90;4.37;;;;;;;;;;5075535;28;20487;-79
2021/09/22 12:39:23;;;;;;;11.20;4.50;;;;;;;;;;5076297;28;20478;-79
2021/09/22 12:42:00;;;;;;;13.10;5.10;;;;;;;;;;5068918;28;20451;-80
2021/09/22 12:44:27;;;;;;;15.80;4.40;;;;;;;;;;5061848;28;20463;-78
2021/09/22 12:46:54;;;;;;;14.50;5.30;;;;;;;;;;5079446;28;20457;-78
2021/09/22 12:49:24;;;;;;;11.37;5.00;;;;;;;;;;5078148;28;20478;-80
2021/09/22 12:51:53;;;;;;;12.80;4.50;;;;;;;;;;5085798;28;21086;-79